Time;durP1;ratioP1;P1;durP2;ratioP2;P2;SDS_P1;SDS_P2;PMS_P1;PMS_P2;Temp;Humidity;BMP_temperature;BMP_pressure;BME280_temperature;BME280_humidity;BME280_pressure;Samples;Min_cycle;Max_cycle;Signal;HPM_P1;HPM_P2
2022/09/02 00:01:43;;;;;;;1.10;1.02;;;16.20;93.00;;;;;;5055020;28;20221;-94
2022/09/02 00:04:20;;;;;;;0.90;0.90;;;16.20;93.20;;;;;;5055025;28;20206;-93
2022/09/02 00:06:50;;;;;;;1.65;1.30;;;16.20;93.00;;;;;;5055327;28;20194;-94
2022/09/02 00:09:20;;;;;;;1.83;1.67;;;16.10;93.20;;;;;;5054958;28;20285;-94
2022/09/02 00:11:50;;;;;;;0.98;0.98;;;16.10;93.60;;;;;;5054681;28;20283;-94
2022/09/02 00:14:22;;;;;;;1.23;1.10;;;16.00;94.10;;;;;;5054447;28;20233;-94
2022/09/02 00:16:51;;;;;;;1.15;1.10;;;16.00;95.40;;;;;;5054236;28;20313;-94
2022/09/02 00:19:23;;;;;;;1.02;1.00;;;15.90;94.90;;;;;;5054576;28;20209;-93
2022/09/02 00:21:52;;;;;;;1.40;0.85;;;15.80;95.20;;;;;;5054561;28;20280;-94
2022/09/02 00:24:24;;;;;;;1.13;1.10;;;15.70;95.40;;;;;;5054565;28;20202;-94
2022/09/02 00:26:53;;;;;;;1.30;1.20;;;15.70;96.10;;;;;;5054618;28;20265;-93
2022/09/02 00:29:24;;;;;;;0.95;0.88;;;15.70;96.10;;;;;;5053658;28;20209;-94
2022/09/02 00:31:52;;;;;;;1.33;1.23;;;15.60;96.50;;;;;;5054406;28;20304;-94
2022/09/02 00:34:22;;;;;;;0.90;0.90;;;15.60;97.00;;;;;;5054396;28;20201;-93
2022/09/02 00:36:51;;;;;;;2.65;1.23;;;15.60;96.90;;;;;;5053855;28;20304;-93
2022/09/02 00:39:20;;;;;;;1.15;1.05;;;15.50;97.00;;;;;;5053522;28;20226;-94
2022/09/02 00:41:48;;;;;;;1.25;1.10;;;15.50;97.30;;;;;;5054497;28;20312;-94
2022/09/02 00:44:18;;;;;;;2.13;1.67;;;15.40;97.70;;;;;;5054521;28;20236;-94
2022/09/02 00:46:47;;;;;;;1.15;1.05;;;15.30;97.80;;;;;;5054233;28;20194;-94
2022/09/02 00:49:23;;;;;;;1.10;1.10;;;15.30;98.20;;;;;;5055336;28;20205;-94
2022/09/02 00:51:57;;;;;;;1.15;1.13;;;15.20;98.50;;;;;;5062637;28;20225;-95
2022/09/02 00:54:28;;;;;;;1.40;1.30;;;15.20;99.60;;;;;;5055144;28;20208;-94
2022/09/02 00:56:56;;;;;;;1.20;1.15;;;15.20;99.30;;;;;;5053680;28;20341;-94
2022/09/02 00:59:38;;;;;;;1.00;1.00;;;15.20;99.50;;;;;;5053928;28;20205;-94
2022/09/02 01:02:06;;;;;;;1.38;1.27;;;15.20;99.90;;;;;;5053790;28;20286;-93
2022/09/02 01:04:35;;;;;;;0.60;0.60;;;15.20;99.90;;;;;;5053936;28;20265;-94
2022/09/02 01:07:05;;;;;;;1.25;1.15;;;15.10;99.90;;;;;;5054095;28;20229;-94
2022/09/02 01:09:35;;;;;;;5.13;1.40;;;15.10;99.90;;;;;;5053360;28;20233;-94
2022/09/02 01:12:04;;;;;;;0.60;0.60;;;15.10;99.90;;;;;;5053910;28;20245;-93
2022/09/02 01:14:33;;;;;;;0.80;0.80;;;15.00;99.90;;;;;;5054593;28;20197;-93
2022/09/02 01:17:02;;;;;;;1.10;1.10;;;15.10;99.90;;;;;;5053318;28;20317;-94
2022/09/02 01:19:35;;;;;;;1.27;1.17;;;15.10;99.90;;;;;;5053442;28;20293;-93
2022/09/02 01:22:14;;;;;;;0.90;0.85;;;15.00;99.90;;;;;;5053596;28;20312;-94
2022/09/02 01:24:43;;;;;;;2.42;1.08;;;15.00;99.90;;;;;;5053537;28;20229;-93
2022/09/02 01:27:15;;;;;;;0.98;0.98;;;15.00;99.90;;;;;;5053243;28;20289;-94
2022/09/02 01:29:44;;;;;;;1.00;1.00;;;15.00;99.90;;;;;;5053025;28;20296;-93
2022/09/02 01:32:12;;;;;;;0.85;0.85;;;15.00;99.90;;;;;;5053185;28;20313;-94
2022/09/02 01:34:41;;;;;;;1.38;1.00;;;15.00;99.90;;;;;;5053270;28;20233;-93
2022/09/02 01:37:11;;;;;;;2.53;1.27;;;15.00;99.90;;;;;;5053013;28;20245;-93
2022/09/02 01:39:40;;;;;;;2.22;1.85;;;15.00;99.90;;;;;;5051947;28;20222;-93
2022/09/02 01:42:09;;;;;;;1.00;1.00;;;14.90;99.90;;;;;;5052672;28;20245;-93
2022/09/02 01:44:42;;;;;;;1.10;1.10;;;14.90;99.90;;;;;;5053239;28;20241;-93
2022/09/02 01:47:11;;;;;;;1.45;1.35;;;14.90;99.90;;;;;;5052956;28;20202;-93
2022/09/02 01:49:40;;;;;;;0.95;0.95;;;14.90;99.90;;;;;;5052808;28;20201;-93
2022/09/02 01:52:09;;;;;;;0.73;0.73;;;14.90;99.90;;;;;;5052829;28;20261;-94
2022/09/02 01:54:39;;;;;;;1.67;1.40;;;14.80;99.90;;;;;;5052927;28;20205;-95
2022/09/02 01:57:08;;;;;;;0.95;0.95;;;14.70;99.90;;;;;;5052569;28;20246;-93
2022/09/02 01:59:37;;;;;;;0.68;0.68;;;14.70;99.90;;;;;;5053024;28;20210;-94
2022/09/02 02:02:05;;;;;;;1.83;1.08;;;14.70;99.90;;;;;;5053083;28;20256;-94
2022/09/02 02:04:34;;;;;;;0.88;0.88;;;14.70;99.90;;;;;;5052262;28;20239;-94
2022/09/02 02:07:03;;;;;;;1.15;1.15;;;14.70;99.90;;;;;;5055029;28;20216;-93
2022/09/02 02:09:32;;;;;;;1.38;1.27;;;14.70;99.90;;;;;;5062348;28;20205;-94
2022/09/02 02:12:01;;;;;;;1.50;1.35;;;14.70;99.90;;;;;;5053502;28;20226;-94
2022/09/02 02:14:31;;;;;;;1.00;1.00;;;14.60;99.90;;;;;;5052714;28;20198;-93
2022/09/02 02:16:59;;;;;;;0.90;0.90;;;14.60;99.90;;;;;;5052188;28;20303;-95
2022/09/02 02:19:28;;;;;;;1.30;1.20;;;14.60;99.90;;;;;;5052782;28;20201;-93
2022/09/02 02:21:59;;;;;;;0.90;0.90;;;14.60;99.90;;;;;;5052313;28;20295;-94
2022/09/02 02:24:27;;;;;;;1.30;1.20;;;14.60;99.90;;;;;;5052374;28;20296;-94
2022/09/02 02:26:56;;;;;;;0.90;0.90;;;14.60;99.90;;;;;;5052433;28;20198;-93
2022/09/02 02:29:25;;;;;;;1.33;1.23;;;14.60;99.90;;;;;;5052138;28;20236;-94
2022/09/02 02:31:54;;;;;;;0.80;0.80;;;14.60;99.90;;;;;;5053065;28;20256;-94
2022/09/02 02:34:22;;;;;;;0.90;0.90;;;14.60;99.90;;;;;;5052732;28;20293;-95
2022/09/02 02:36:51;;;;;;;1.58;1.38;;;14.60;99.90;;;;;;5052090;28;20237;-93
2022/09/02 02:39:19;;;;;;;1.60;1.50;;;14.50;99.90;;;;;;5052057;28;20297;-94
2022/09/02 02:41:48;;;;;;;0.90;0.90;;;14.50;99.90;;;;;;5052104;28;20245;-93
2022/09/02 02:44:16;;;;;;;1.02;0.95;;;14.50;99.90;;;;;;5052751;28;20297;-93
2022/09/02 02:46:46;;;;;;;1.20;1.10;;;14.50;99.90;;;;;;5052632;28;20205;-93
2022/09/02 02:49:14;;;;;;;1.40;1.30;;;14.40;99.90;;;;;;5052074;28;20204;-94
2022/09/02 02:51:43;;;;;;;1.73;1.10;;;14.40;99.90;;;;;;5053898;28;20267;-95
2022/09/02 02:54:13;;;;;;;1.50;1.00;;;14.40;99.90;;;;;;5056342;28;20296;-93
2022/09/02 02:56:41;;;;;;;1.20;1.17;;;14.40;99.90;;;;;;5056065;28;20245;-94
2022/09/02 02:59:10;;;;;;;1.45;1.35;;;14.40;99.90;;;;;;5056164;28;20206;-93
2022/09/02 03:01:38;;;;;;;1.20;1.20;;;14.40;99.90;;;;;;5056068;28;20242;-94
2022/09/02 03:04:08;;;;;;;2.38;1.20;;;14.40;99.90;;;;;;5056023;28;20213;-93
2022/09/02 03:06:36;;;;;;;1.30;1.20;;;14.30;99.90;;;;;;5056107;28;20236;-94
2022/09/02 03:09:05;;;;;;;2.13;1.70;;;14.30;99.90;;;;;;5055817;28;20236;-94
2022/09/02 03:11:34;;;;;;;2.40;1.38;;;14.30;99.90;;;;;;5059372;28;20309;-93
2022/09/02 03:14:02;;;;;;;1.25;1.15;;;14.20;99.90;;;;;;5059646;28;20269;-93
2022/09/02 03:16:30;;;;;;;1.05;1.05;;;14.20;99.90;;;;;;5059469;28;20249;-92
2022/09/02 03:18:59;;;;;;;0.98;0.98;;;14.20;99.90;;;;;;5058636;28;20220;-94
2022/09/02 03:21:29;;;;;;;1.42;1.33;;;14.20;99.90;;;;;;5056080;28;20260;-94
2022/09/02 03:24:06;;;;;;;1.23;1.10;;;14.20;99.90;;;;;;5055711;28;20202;-94
2022/09/02 03:26:34;;;;;;;1.10;1.05;;;14.20;99.90;;;;;;5064400;28;20236;-94
2022/09/02 03:29:03;;;;;;;1.20;1.15;;;14.20;99.90;;;;;;5060659;28;20212;-94
2022/09/02 03:31:31;;;;;;;12.85;1.35;;;14.20;99.90;;;;;;5055608;28;20268;-94
2022/09/02 03:33:59;;;;;;;1.00;1.00;;;14.20;99.90;;;;;;5055649;28;20233;-93
2022/09/02 03:36:33;;;;;;;1.20;1.10;;;14.10;99.90;;;;;;5055686;28;20209;-93
2022/09/02 03:39:02;;;;;;;1.10;1.10;;;14.10;99.90;;;;;;5055166;28;20347;-95
2022/09/02 03:41:30;;;;;;;1.35;1.25;;;14.10;99.90;;;;;;5055025;28;20222;-95
2022/09/02 03:43:58;;;;;;;1.30;1.20;;;14.10;99.90;;;;;;5055566;28;20214;-95
2022/09/02 03:46:27;;;;;;;1.23;1.15;;;14.10;99.90;;;;;;5055315;28;20259;-93
2022/09/02 03:48:55;;;;;;;1.30;1.20;;;14.00;99.90;;;;;;5054944;28;20259;-93
2022/09/02 03:51:24;;;;;;;1.30;1.20;;;14.10;99.90;;;;;;5055458;28;20269;-95
2022/09/02 03:53:54;;;;;;;2.25;1.58;;;14.00;99.90;;;;;;5055128;28;20252;-93
2022/09/02 03:56:24;;;;;;;3.05;1.35;;;14.00;99.90;;;;;;5055213;28;20228;-94
2022/09/02 03:58:53;;;;;;;0.98;0.98;;;14.00;99.90;;;;;;5054752;28;20294;-93
2022/09/02 04:01:24;;;;;;;1.10;1.10;;;13.90;99.90;;;;;;5055132;28;20229;-94
2022/09/02 04:04:01;;;;;;;1.60;1.20;;;13.90;99.90;;;;;;5053976;28;20204;-94
2022/09/02 04:06:30;;;;;;;1.33;1.27;;;13.90;99.90;;;;;;5054788;28;20289;-93
2022/09/02 04:09:01;;;;;;;1.30;1.23;;;13.90;99.90;;;;;;5054973;28;20259;-94
2022/09/02 04:11:30;;;;;;;1.52;1.42;;;13.90;99.90;;;;;;5054955;28;20218;-94
2022/09/02 04:13:59;;;;;;;1.15;1.10;;;13.90;99.90;;;;;;5054883;28;20248;-94
2022/09/02 04:16:27;;;;;;;2.45;1.80;;;13.90;99.90;;;;;;5054931;28;20225;-93
2022/09/02 04:18:57;;;;;;;1.88;1.60;;;13.90;99.90;;;;;;5054843;28;20229;-95
2022/09/02 04:21:26;;;;;;;0.95;0.95;;;13.90;99.90;;;;;;5054723;28;20313;-92
2022/09/02 04:23:54;;;;;;;1.33;1.23;;;13.80;99.90;;;;;;5054677;28;20297;-94
2022/09/02 04:26:24;;;;;;;1.27;1.17;;;13.80;99.90;;;;;;5054424;28;20232;-93
2022/09/02 04:28:53;;;;;;;1.27;1.17;;;13.80;99.90;;;;;;5054163;28;20244;-93
2022/09/02 04:31:24;;;;;;;1.17;1.17;;;13.70;99.90;;;;;;5054709;28;20318;-93
2022/09/02 04:33:53;;;;;;;2.05;1.67;;;13.80;99.90;;;;;;5054768;28;20201;-94
2022/09/02 04:36:22;;;;;;;3.97;1.38;;;13.80;99.90;;;;;;5054471;28;20240;-93
2022/09/02 04:38:51;;;;;;;0.90;0.90;;;13.80;99.90;;;;;;5054131;28;20221;-93
2022/09/02 04:41:24;;;;;;;1.13;1.10;;;13.80;99.90;;;;;;5054164;28;20233;-94
2022/09/02 04:43:55;;;;;;;1.92;1.30;;;13.70;99.90;;;;;;5057117;28;20261;-95
2022/09/02 04:46:25;;;;;;;1.70;1.30;;;13.70;99.90;;;;;;5064980;28;20240;-93
2022/09/02 04:49:02;;;;;;;2.90;1.33;;;13.70;99.90;;;;;;5054668;28;20198;-94
2022/09/02 04:51:30;;;;;;;1.30;1.20;;;13.70;99.90;;;;;;5053772;28;20281;-93
2022/09/02 04:53:58;;;;;;;1.80;1.65;;;13.70;99.90;;;;;;5053946;28;20290;-93
2022/09/02 04:56:31;;;;;;;1.05;1.05;;;13.70;99.90;;;;;;5054199;28;20259;-93
2022/09/02 04:59:00;;;;;;;2.13;1.80;;;13.70;99.90;;;;;;5053633;28;20222;-95
2022/09/02 05:01:32;;;;;;;1.35;1.25;;;13.70;99.90;;;;;;5053707;28;20297;-93
2022/09/02 05:04:02;;;;;;;2.63;1.50;;;13.70;99.90;;;;;;5053674;28;20288;-94
2022/09/02 05:06:30;;;;;;;1.08;1.08;;;13.70;99.90;;;;;;5053558;28;20267;-93
2022/09/02 05:09:00;;;;;;;1.38;1.27;;;13.80;99.90;;;;;;5053562;28;20266;-93
2022/09/02 05:11:32;;;;;;;2.10;1.50;;;13.80;99.90;;;;;;5054364;28;20245;-94
2022/09/02 05:14:05;;;;;;;2.08;1.50;;;13.80;99.90;;;;;;5053292;28;20236;-94
2022/09/02 05:16:36;;;;;;;1.23;1.15;;;13.80;99.90;;;;;;5053454;28;20233;-94
2022/09/02 05:19:06;;;;;;;1.33;1.23;;;13.90;99.90;;;;;;5053488;28;20264;-94
2022/09/02 05:21:34;;;;;;;2.05;1.52;;;13.90;99.90;;;;;;5053417;28;20268;-94
2022/09/02 05:24:03;;;;;;;1.80;1.20;;;13.90;99.90;;;;;;5053623;28;20296;-94
2022/09/02 05:26:34;;;;;;;1.90;1.70;;;13.90;99.90;;;;;;5053483;28;20206;-94
2022/09/02 05:29:04;;;;;;;1.58;1.42;;;13.90;99.90;;;;;;5053295;28;20259;-95
2022/09/02 05:31:33;;;;;;;1.50;1.40;;;13.90;99.90;;;;;;5053230;28;20225;-94
2022/09/02 05:34:01;;;;;;;3.58;1.80;;;13.90;99.90;;;;;;5053415;28;20288;-95
2022/09/02 05:36:31;;;;;;;2.72;2.40;;;14.00;99.90;;;;;;5053331;28;20230;-93
2022/09/02 05:39:00;;;;;;;2.10;1.90;;;14.10;99.90;;;;;;5052782;28;20229;-94
2022/09/02 05:41:28;;;;;;;3.03;1.95;;;14.10;99.90;;;;;;5053069;28;20263;-93
2022/09/02 05:44:03;;;;;;;2.00;1.70;;;14.10;99.90;;;;;;5053370;28;20228;-94
2022/09/02 05:46:32;;;;;;;2.13;1.50;;;14.20;99.90;;;;;;5053358;28;20209;-94
2022/09/02 05:49:07;;;;;;;1.65;1.55;;;14.30;99.90;;;;;;5052838;28;20202;-94
2022/09/02 05:51:40;;;;;;;3.08;1.42;;;14.30;99.90;;;;;;5053370;28;20304;-94
2022/09/02 05:54:11;;;;;;;1.65;1.55;;;14.30;99.90;;;;;;5053325;28;20201;-94
2022/09/02 05:56:41;;;;;;;1.80;1.70;;;14.40;99.90;;;;;;5052843;28;20259;-94
2022/09/02 05:59:14;;;;;;;2.03;1.40;;;14.50;99.90;;;;;;5052540;28;20229;-95
2022/09/02 06:01:43;;;;;;;1.75;1.65;;;14.50;99.90;;;;;;5056995;28;20256;-94
2022/09/02 06:04:11;;;;;;;2.40;1.55;;;14.50;99.90;;;;;;5062176;28;20226;-94
2022/09/02 06:06:41;;;;;;;1.55;1.45;;;14.60;99.90;;;;;;5053029;28;20232;-94
2022/09/02 06:09:13;;;;;;;2.30;2.13;;;14.60;99.90;;;;;;5052844;28;20306;-94
2022/09/02 06:11:48;;;;;;;1.73;1.63;;;14.70;99.90;;;;;;5079259;22;20229;-94
2022/09/02 06:14:20;;;;;;;1.75;1.65;;;14.70;99.90;;;;;;5113147;28;20199;-94
2022/09/02 06:16:50;;;;;;;2.75;1.77;;;14.80;99.90;;;;;;5113335;28;20226;-94
2022/09/02 06:19:19;;;;;;;1.42;1.33;;;14.80;99.90;;;;;;5113252;28;20216;-94
2022/09/02 06:21:48;;;;;;;1.70;1.50;;;14.90;99.90;;;;;;5113004;28;20254;-94
2022/09/02 06:24:17;;;;;;;1.52;1.42;;;14.90;99.90;;;;;;5113339;28;20203;-94
2022/09/02 06:26:46;;;;;;;1.77;1.67;;;14.90;99.90;;;;;;5115158;28;20199;-95
2022/09/02 06:29:14;;;;;;;2.70;2.17;;;15.00;99.90;;;;;;5116967;28;20271;-95
2022/09/02 06:31:46;;;;;;;4.50;2.05;;;15.10;99.90;;;;;;5117560;28;20220;-95
2022/09/02 06:34:16;;;;;;;1.77;1.67;;;15.10;99.90;;;;;;5117357;28;20203;-93
2022/09/02 06:36:46;;;;;;;1.92;1.65;;;15.20;99.90;;;;;;5117675;28;20214;-94
2022/09/02 06:39:24;;;;;;;1.77;1.67;;;15.20;99.90;;;;;;5116829;28;20223;-94
2022/09/02 06:41:57;;;;;;;3.03;1.45;;;15.20;99.90;;;;;;5117073;28;20239;-94
2022/09/02 06:44:26;;;;;;;2.85;1.52;;;15.20;99.90;;;;;;5117653;28;20235;-94
2022/09/02 06:46:57;;;;;;;3.33;2.05;;;15.30;99.90;;;;;;5116790;28;20279;-94
2022/09/02 06:49:27;;;;;;;2.33;1.70;;;15.40;99.90;;;;;;5116560;28;20200;-94
2022/09/02 06:51:56;;;;;;;1.83;1.70;;;15.40;99.90;;;;;;5116701;28;20273;-93
2022/09/02 06:54:25;;;;;;;2.22;1.58;;;15.50;99.90;;;;;;5116862;28;20204;-94
2022/09/02 06:56:53;;;;;;;3.20;2.20;;;15.60;99.90;;;;;;5116967;28;20290;-94
2022/09/02 06:59:22;;;;;;;3.35;1.45;;;15.70;99.90;;;;;;5116889;28;20262;-94
2022/09/02 07:01:55;;;;;;;1.70;1.58;;;15.70;99.90;;;;;;5116882;28;20330;-93
2022/09/02 07:07:10;;;;;;;1.85;1.75;;;15.80;99.90;;;;;;5117057;28;20284;-94
2022/09/02 07:09:39;;;;;;;1.40;1.30;;;15.90;99.90;;;;;;5116755;28;20200;-93
2022/09/02 07:12:08;;;;;;;4.45;2.25;;;15.90;99.90;;;;;;5116579;28;20322;-93
2022/09/02 07:14:38;;;;;;;3.15;1.73;;;16.00;99.90;;;;;;5116658;28;20208;-94
2022/09/02 07:17:09;;;;;;;1.42;1.33;;;16.10;99.90;;;;;;5115984;28;20259;-94
2022/09/02 07:19:38;;;;;;;1.63;1.48;;;16.20;99.90;;;;;;5120398;28;20224;-94
2022/09/02 07:22:07;;;;;;;1.65;1.55;;;16.30;99.90;;;;;;5126111;28;20243;-93
2022/09/02 07:24:36;;;;;;;1.80;1.65;;;16.30;99.90;;;;;;5116786;28;20200;-94
2022/09/02 07:27:10;;;;;;;2.90;1.88;;;16.30;99.90;;;;;;5116516;28;20295;-94
2022/09/02 07:29:42;;;;;;;1.20;1.20;;;16.20;99.90;;;;;;5116693;28;20199;-94
2022/09/02 07:32:12;;;;;;;1.88;1.70;;;16.30;99.90;;;;;;5116010;28;20298;-93
2022/09/02 07:34:41;;;;;;;2.25;1.90;;;16.30;99.90;;;;;;5116588;28;20196;-94
2022/09/02 07:37:10;;;;;;;1.63;1.52;;;16.40;99.90;;;;;;5116169;28;20260;-94
2022/09/02 07:39:38;;;;;;;1.52;1.10;;;16.50;99.90;;;;;;5115712;28;20315;-94
2022/09/02 07:42:07;;;;;;;1.85;1.58;;;16.60;99.90;;;;;;5115998;28;20245;-93
2022/09/02 07:44:35;;;;;;;1.52;1.42;;;16.70;99.90;;;;;;5116295;28;20196;-93
2022/09/02 07:47:05;;;;;;;2.25;1.63;;;16.80;99.90;;;;;;5116156;28;20295;-93
2022/09/02 07:49:37;;;;;;;1.70;1.60;;;16.90;99.90;;;;;;5115234;28;20195;-94
2022/09/02 07:52:25;;;;;;;1.65;1.55;;;17.00;99.90;;;;;;5117402;28;20230;-93
2022/09/02 07:54:54;;;;;;;2.70;1.60;;;17.20;99.90;;;;;;5116202;28;20264;-93
2022/09/02 07:57:23;;;;;;;2.40;2.20;;;17.40;99.90;;;;;;5117901;28;20211;-93
2022/09/02 07:59:51;;;;;;;2.70;2.38;;;17.50;99.90;;;;;;5116975;28;20283;-94
2022/09/02 08:02:20;;;;;;;2.58;2.38;;;17.70;99.90;;;;;;5115343;28;20258;-94
2022/09/02 08:04:50;;;;;;;2.42;1.67;;;18.00;99.90;;;;;;5116221;28;20196;-94
2022/09/02 08:07:22;;;;;;;1.58;1.30;;;18.30;99.90;;;;;;5116168;28;20238;-94
2022/09/02 08:09:51;;;;;;;1.42;1.33;;;18.60;99.90;;;;;;5115445;28;20210;-93
2022/09/02 08:12:19;;;;;;;1.83;1.67;;;18.90;99.90;;;;;;5115414;28;20318;-96
2022/09/02 08:14:49;;;;;;;1.90;1.80;;;19.10;99.90;;;;;;5115437;28;20211;-93
2022/09/02 08:17:48;;;;;;;1.58;1.48;;;19.10;99.90;;;;;;5115301;28;20199;-93
2022/09/02 08:20:18;;;;;;;2.38;1.73;;;19.30;99.90;;;;;;5115223;28;20248;-93
2022/09/02 08:22:47;;;;;;;1.80;1.70;;;19.70;99.90;;;;;;5115193;28;20314;-95
2022/09/02 08:25:32;;;;;;;7.97;1.60;;;20.20;99.90;;;;;;5115266;28;20237;-93
2022/09/02 08:28:00;;;;;;;1.58;1.48;;;20.60;99.90;;;;;;5115513;28;20280;-94
2022/09/02 08:30:29;;;;;;;2.15;2.03;;;21.30;99.90;;;;;;5114913;28;20199;-93
2022/09/02 08:32:57;;;;;;;2.05;1.92;;;22.10;99.90;;;;;;5115373;28;20200;-94
2022/09/02 08:35:27;;;;;;;4.55;2.13;;;22.90;99.90;;;;;;5115396;28;20294;-94
2022/09/02 08:37:58;;;;;;;3.20;2.10;;;23.90;99.80;;;;;;5120734;28;20229;-94
2022/09/02 08:40:36;;;;;;;2.03;1.92;;;24.70;98.30;;;;;;5121993;28;20315;-94
2022/09/02 08:43:24;;;;;;;2.22;2.03;;;25.60;95.10;;;;;;5115037;28;20203;-94
2022/09/02 08:45:54;;;;;;;2.38;2.17;;;26.20;92.90;;;;;;5114791;28;20296;-93
2022/09/02 08:48:33;;;;;;;2.20;2.10;;;26.90;91.70;;;;;;5114513;28;20242;-94
2022/09/02 08:51:07;;;;;;;4.10;2.50;;;27.50;89.60;;;;;;5114792;28;20273;-93
2022/09/02 08:53:43;;;;;;;2.15;2.05;;;27.80;85.50;;;;;;5114702;28;20294;-93
2022/09/02 08:56:12;;;;;;;2.15;1.95;;;28.00;82.60;;;;;;5114993;28;20228;-96
2022/09/02 09:05:14;;;;;;;1.98;1.88;;;27.70;81.80;;;;;;5071105;28;20219;-94
2022/09/02 09:07:59;;;;;;;2.53;2.20;;;27.90;81.50;;;;;;5073932;28;20301;-95
2022/09/02 09:10:36;;;;;;;3.58;2.80;;;28.10;79.60;;;;;;5073226;28;20261;-95
2022/09/02 09:13:46;;;;;;;2.67;2.47;;;28.30;77.20;;;;;;5073682;28;20280;-92
2022/09/02 09:16:24;;;;;;;3.78;3.47;;;28.80;76.30;;;;;;5054086;28;20289;-94
2022/09/02 09:19:02;;;;;;;2.00;1.85;;;28.70;75.60;;;;;;5073295;28;20213;-93
2022/09/02 09:21:35;;;;;;;5.47;5.00;;;28.90;72.20;;;;;;5072822;28;20236;-94
2022/09/02 09:24:09;;;;;;;6.88;5.80;;;29.10;72.50;;;;;;5073203;28;20236;-94
2022/09/02 09:26:41;;;;;;;3.58;2.30;;;29.10;70.30;;;;;;5073008;28;20232;-94
2022/09/02 09:29:09;;;;;;;4.88;4.47;;;29.00;69.80;;;;;;5073157;28;20278;-94
2022/09/02 09:31:39;;;;;;;4.47;4.05;;;28.70;72.50;;;;;;5073241;28;20221;-94
2022/09/02 09:34:09;;;;;;;3.45;2.80;;;27.80;67.10;;;;;;5073351;28;20197;-94
2022/09/02 09:36:48;;;;;;;5.90;5.05;;;27.90;72.20;;;;;;5073543;28;20205;-94
2022/09/02 09:39:20;;;;;;;3.15;2.92;;;28.20;70.80;;;;;;5073005;28;20200;-94
2022/09/02 09:41:50;;;;;;;2.60;2.40;;;28.60;72.90;;;;;;5072804;28;20233;-94
2022/09/02 09:44:37;;;;;;;2.45;2.25;;;29.50;70.80;;;;;;5073837;28;20240;-94
2022/09/02 09:47:08;;;;;;;2.42;2.28;;;30.30;66.90;;;;;;5074187;28;20215;-94
2022/09/02 09:49:37;;;;;;;1.80;1.70;;;30.80;65.00;;;;;;5072893;28;20205;-94
2022/09/02 09:52:06;;;;;;;1.85;1.73;;;30.80;62.30;;;;;;5073084;28;20243;-94
2022/09/02 09:54:36;;;;;;;1.67;1.58;;;30.50;61.60;;;;;;5073851;28;20205;-95
2022/09/02 09:57:23;;;;;;;2.58;1.75;;;29.40;62.20;;;;;;5083433;28;20197;-93
2022/09/02 10:00:11;;;;;;;9.15;2.40;;;29.70;63.10;;;;;;5073525;28;20212;-93
2022/09/02 10:02:48;;;;;;;2.15;2.05;;;29.90;62.70;;;;;;5072516;28;20299;-93
2022/09/02 10:05:57;;;;;;;3.88;2.72;;;30.30;65.20;;;;;;5072675;28;20227;-93
2022/09/02 10:08:28;;;;;;;3.08;2.65;;;30.80;61.70;;;;;;5072579;28;20247;-94
2022/09/02 10:11:04;;;;;;;2.22;2.03;;;31.10;61.80;;;;;;5073120;28;20239;-93
2022/09/02 10:13:34;;;;;;;1.92;1.83;;;31.30;59.80;;;;;;5072948;28;20228;-94
2022/09/02 10:16:32;;;;;;;1.60;1.50;;;31.40;60.50;;;;;;5072895;28;20205;-93
2022/09/02 10:19:10;;;;;;;1.60;1.50;;;31.30;59.10;;;;;;5072566;28;20205;-94
2022/09/02 10:21:55;;;;;;;2.35;1.75;;;31.40;56.00;;;;;;5072331;28;20244;-94
2022/09/02 10:28:34;;;;;;;1.77;1.63;;;31.20;57.80;;;;;;5072354;28;20176;-94
2022/09/02 10:31:10;;;;;;;1.20;1.10;;;31.00;58.40;;;;;;5072257;28;20221;-95
2022/09/02 10:33:50;;;;;;;0.95;0.95;;;31.00;56.50;;;;;;5072629;28;20217;-94
2022/09/02 10:36:27;;;;;;;1.02;0.95;;;30.90;53.90;;;;;;5072361;28;20211;-95
2022/09/02 10:39:03;;;;;;;1.33;1.23;;;30.70;53.80;;;;;;5072114;28;20204;-94
2022/09/02 10:41:44;;;;;;;1.08;1.02;;;30.30;54.20;;;;;;5072009;28;20251;-95
2022/09/02 10:44:35;;;;;;;2.67;1.60;;;30.00;54.60;;;;;;5072278;28;20197;-93
2022/09/02 10:47:08;;;;;;;1.05;1.00;;;29.80;55.80;;;;;;5072374;28;20257;-94
2022/09/02 10:49:49;;;;;;;1.50;1.40;;;29.60;55.20;;;;;;5072070;28;20307;-95
2022/09/02 10:52:30;;;;;;;1.00;1.00;;;29.70;53.80;;;;;;5072745;28;20247;-94
2022/09/02 10:55:06;;;;;;;2.20;1.58;;;29.30;55.30;;;;;;5072528;28;20236;-94
2022/09/02 10:57:42;;;;;;;1.98;1.45;;;29.20;55.80;;;;;;5071996;28;20251;-92
2022/09/02 11:00:16;;;;;;;1.25;1.25;;;29.20;55.90;;;;;;5071437;28;20240;-95
2022/09/02 11:02:51;;;;;;;1.80;1.35;;;29.20;56.30;;;;;;5072059;28;20286;-95
2022/09/02 11:05:24;;;;;;;6.07;1.38;;;29.30;57.20;;;;;;5072013;28;20243;-95
2022/09/02 11:07:58;;;;;;;1.27;1.27;;;29.50;55.80;;;;;;5072064;28;20297;-95
2022/09/02 11:10:31;;;;;;;1.30;1.20;;;29.60;56.10;;;;;;5072092;28;20224;-95
2022/09/02 11:13:05;;;;;;;1.17;1.15;;;29.70;56.20;;;;;;5077770;28;20217;-95
2022/09/02 11:15:48;;;;;;;1.95;1.20;;;29.70;56.40;;;;;;5086885;28;20205;-95
2022/09/02 11:18:22;;;;;;;1.17;1.17;;;29.90;55.70;;;;;;5077716;28;20251;-96
2022/09/02 11:21:00;;;;;;;1.00;1.00;;;30.00;55.80;;;;;;5078360;28;20232;-95
2022/09/02 11:23:39;;;;;;;0.98;0.95;;;30.20;55.30;;;;;;5082116;28;20270;-95
2022/09/02 11:26:15;;;;;;;1.67;1.58;;;30.20;55.40;;;;;;5078222;28;20200;-95
2022/09/02 11:28:54;;;;;;;1.60;1.50;;;30.50;56.10;;;;;;5076033;28;20211;-95
2022/09/02 11:31:30;;;;;;;1.58;1.48;;;30.60;55.30;;;;;;5075730;28;20231;-95
2022/09/02 11:34:10;;;;;;;1.10;1.10;;;30.40;54.80;;;;;;5076189;28;20207;-95
2022/09/02 11:36:39;;;;;;;1.65;1.35;;;30.30;55.50;;;;;;5075539;28;20240;-94
2022/09/02 11:39:13;;;;;;;1.10;1.10;;;30.50;54.40;;;;;;5075134;28;20201;-95
2022/09/02 11:42:10;;;;;;;1.60;1.40;;;30.50;53.90;;;;;;5075580;28;20221;-95
2022/09/02 11:45:01;;;;;;;1.88;1.77;;;30.90;55.80;;;;;;5075193;28;20209;-95
2022/09/02 11:48:00;;;;;;;1.70;1.60;;;31.30;55.00;;;;;;5074641;28;20197;-96
2022/09/02 11:50:49;;;;;;;1.10;1.10;;;31.20;53.90;;;;;;5074669;28;20254;-95
2022/09/02 11:53:26;;;;;;;1.92;1.40;;;30.90;54.70;;;;;;5075505;28;20203;-95
2022/09/02 11:55:59;;;;;;;3.20;2.00;;;30.90;53.20;;;;;;5075835;28;20197;-96
2022/09/02 11:58:33;;;;;;;1.48;1.38;;;30.80;53.70;;;;;;5074814;28;20225;-95
2022/09/02 12:01:20;;;;;;;2.28;1.50;;;30.90;53.80;;;;;;5074503;28;20221;-95
2022/09/02 12:04:01;;;;;;;2.10;1.63;;;30.80;53.80;;;;;;5074570;28;20213;-95
2022/09/02 12:07:25;;;;;;;1.25;1.17;;;31.00;53.80;;;;;;5074651;28;20205;-95
2022/09/02 12:10:02;;;;;;;2.15;1.55;;;31.60;54.80;;;;;;5074848;28;20295;-95
2022/09/02 12:13:06;;;;;;;2.35;1.35;;;32.10;54.40;;;;;;5074786;28;20267;-95
2022/09/02 12:15:39;;;;;;;1.10;1.10;;;32.10;52.40;;;;;;5074841;28;20201;-95
2022/09/02 12:18:13;;;;;;;1.38;1.30;;;32.10;52.80;;;;;;5074844;28;20216;-95
2022/09/02 12:21:14;;;;;;;1.48;1.27;;;32.30;50.40;;;;;;5074534;28;20212;-95
2022/09/02 12:24:48;;;;;;;1.50;1.40;;;32.30;51.60;;;;;;5073796;28;20205;-95
2022/09/02 12:27:24;;;;;;;2.83;1.90;;;32.30;52.80;;;;;;5074526;28;20239;-95
2022/09/02 12:29:53;;;;;;;1.25;1.15;;;32.10;50.80;;;;;;5074430;28;20201;-95
2022/09/02 12:33:03;;;;;;;1.20;1.20;;;31.90;51.20;;;;;;5084903;28;20229;-94
2022/09/02 12:35:53;;;;;;;1.40;1.30;;;31.70;51.70;;;;;;5058668;28;20201;-95
2022/09/02 12:38:33;;;;;;;1.40;1.23;;;31.50;51.10;;;;;;5073619;28;20263;-94
2022/09/02 12:41:31;;;;;;;1.05;1.05;;;31.30;52.10;;;;;;5074221;28;20241;-95
2022/09/02 12:44:32;;;;;;;1.40;1.30;;;31.10;52.60;;;;;;5062117;28;20276;-94
2022/09/02 12:47:09;;;;;;;1.67;1.40;;;31.00;52.60;;;;;;5074216;28;20256;-95
2022/09/02 12:49:53;;;;;;;1.58;1.33;;;30.80;51.20;;;;;;5073449;28;20287;-94
2022/09/02 12:52:43;;;;;;;1.13;1.13;;;30.80;51.40;;;;;;5073689;28;20217;-95
2022/09/02 12:55:19;;;;;;;1.45;1.35;;;31.00;52.10;;;;;;5074057;28;20264;-94
2022/09/02 12:57:51;;;;;;;1.30;1.20;;;31.10;53.00;;;;;;5074291;28;20224;-94
2022/09/02 13:00:28;;;;;;;1.73;1.38;;;31.10;51.40;;;;;;5073403;28;20212;-95
2022/09/02 13:03:07;;;;;;;1.27;1.17;;;31.40;52.10;;;;;;5073750;28;20221;-94
2022/09/02 13:05:53;;;;;;;2.92;1.38;;;31.50;52.30;;;;;;5073861;28;20209;-95
2022/09/02 13:08:48;;;;;;;1.45;1.35;;;31.50;51.40;;;;;;5074047;28;20229;-95
2022/09/02 13:11:49;;;;;;;2.10;1.90;;;31.30;52.60;;;;;;5071907;28;20233;-94
2022/09/02 13:14:50;;;;;;;2.20;2.00;;;31.10;52.70;;;;;;5073595;28;20205;-94
2022/09/02 13:17:41;;;;;;;1.77;1.27;;;31.30;52.40;;;;;;5073326;28;20278;-95
2022/09/02 13:20:54;;;;;;;1.40;1.30;;;31.00;51.60;;;;;;5074070;28;20255;-94
2022/09/02 13:24:04;;;;;;;1.77;1.67;;;30.90;52.60;;;;;;5017298;28;20230;-94
2022/09/02 13:27:05;;;;;;;1.38;1.27;;;30.70;49.40;;;;;;5063701;28;20205;-95
2022/09/02 13:30:20;;;;;;;1.45;1.33;;;30.60;49.60;;;;;;5073384;28;20241;-94
2022/09/02 13:32:57;;;;;;;1.40;1.30;;;30.10;49.30;;;;;;5073276;28;20225;-94
2022/09/02 13:35:27;;;;;;;1.55;1.45;;;30.10;50.00;;;;;;5073071;28;20313;-94
2022/09/02 13:37:59;;;;;;;2.03;1.60;;;29.80;51.60;;;;;;5072666;28;20273;-94